sensor_id;sensor_type;location;lat;lon;timestamp;P1;durP1;ratioP1;P2;durP2;ratioP2
22644;SDS011;11489;50.834;6.752;2022-08-07T00:00:58;2.42;;;1.10;;
22644;SDS011;11489;50.834;6.752;2022-08-07T00:03:24;1.90;;;1.23;;
22644;SDS011;11489;50.834;6.752;2022-08-07T00:05:52;2.58;;;1.27;;
22644;SDS011;11489;50.834;6.752;2022-08-07T00:08:19;1.73;;;1.20;;
22644;SDS011;11489;50.834;6.752;2022-08-07T00:10:47;2.90;;;1.25;;
22644;SDS011;11489;50.834;6.752;2022-08-07T00:13:13;2.58;;;1.25;;
22644;SDS011;11489;50.834;6.752;2022-08-07T00:15:39;3.58;;;1.27;;
22644;SDS011;11489;50.834;6.752;2022-08-07T00:18:05;2.88;;;1.52;;
22644;SDS011;11489;50.834;6.752;2022-08-07T00:20:33;1.83;;;1.42;;
22644;SDS011;11489;50.834;6.752;2022-08-07T00:22:59;1.67;;;1.23;;
22644;SDS011;11489;50.834;6.752;2022-08-07T00:25:24;2.30;;;1.25;;
22644;SDS011;11489;50.834;6.752;2022-08-07T00:27:50;1.75;;;1.40;;
22644;SDS011;11489;50.834;6.752;2022-08-07T00:30:16;1.95;;;1.50;;
22644;SDS011;11489;50.834;6.752;2022-08-07T00:32:42;2.05;;;1.25;;
22644;SDS011;11489;50.834;6.752;2022-08-07T00:35:11;2.67;;;1.50;;
22644;SDS011;11489;50.834;6.752;2022-08-07T00:37:36;3.65;;;1.58;;
22644;SDS011;11489;50.834;6.752;2022-08-07T00:40:02;2.88;;;1.50;;
22644;SDS011;11489;50.834;6.752;2022-08-07T00:42:28;4.25;;;2.08;;
22644;SDS011;11489;50.834;6.752;2022-08-07T00:44:54;1.95;;;1.52;;
22644;SDS011;11489;50.834;6.752;2022-08-07T00:47:19;2.65;;;1.65;;
22644;SDS011;11489;50.834;6.752;2022-08-07T00:49:45;4.72;;;1.60;;
22644;SDS011;11489;50.834;6.752;2022-08-07T00:52:11;2.45;;;1.77;;
22644;SDS011;11489;50.834;6.752;2022-08-07T00:54:36;2.22;;;1.50;;
22644;SDS011;11489;50.834;6.752;2022-08-07T00:57:02;2.08;;;1.50;;
22644;SDS011;11489;50.834;6.752;2022-08-07T00:59:30;3.13;;;1.80;;
22644;SDS011;11489;50.834;6.752;2022-08-07T01:01:55;2.92;;;1.55;;
22644;SDS011;11489;50.834;6.752;2022-08-07T01:04:21;2.58;;;1.65;;
22644;SDS011;11489;50.834;6.752;2022-08-07T01:06:47;2.85;;;1.80;;
22644;SDS011;11489;50.834;6.752;2022-08-07T01:09:13;3.17;;;1.70;;
22644;SDS011;11489;50.834;6.752;2022-08-07T01:11:39;2.72;;;1.60;;
22644;SDS011;11489;50.834;6.752;2022-08-07T01:14:05;3.00;;;1.80;;
22644;SDS011;11489;50.834;6.752;2022-08-07T01:16:31;2.45;;;1.80;;
22644;SDS011;11489;50.834;6.752;2022-08-07T01:18:57;2.17;;;1.70;;
22644;SDS011;11489;50.834;6.752;2022-08-07T01:21:23;3.50;;;1.80;;
22644;SDS011;11489;50.834;6.752;2022-08-07T01:23:50;3.65;;;1.70;;
22644;SDS011;11489;50.834;6.752;2022-08-07T01:26:18;4.38;;;1.70;;
22644;SDS011;11489;50.834;6.752;2022-08-07T01:28:47;4.95;;;1.90;;
22644;SDS011;11489;50.834;6.752;2022-08-07T01:31:18;3.42;;;1.80;;
22644;SDS011;11489;50.834;6.752;2022-08-07T01:33:45;3.28;;;1.92;;
22644;SDS011;11489;50.834;6.752;2022-08-07T01:36:11;2.55;;;1.70;;
22644;SDS011;11489;50.834;6.752;2022-08-07T01:38:38;2.97;;;1.85;;
22644;SDS011;11489;50.834;6.752;2022-08-07T01:41:04;3.05;;;1.48;;
22644;SDS011;11489;50.834;6.752;2022-08-07T01:43:31;2.08;;;1.73;;
22644;SDS011;11489;50.834;6.752;2022-08-07T01:45:58;2.28;;;1.55;;
22644;SDS011;11489;50.834;6.752;2022-08-07T01:48:24;5.07;;;1.60;;
22644;SDS011;11489;50.834;6.752;2022-08-07T01:50:56;3.83;;;2.00;;
22644;SDS011;11489;50.834;6.752;2022-08-07T01:53:26;3.00;;;1.80;;
22644;SDS011;11489;50.834;6.752;2022-08-07T01:56:04;2.47;;;1.50;;
22644;SDS011;11489;50.834;6.752;2022-08-07T01:58:37;2.97;;;1.85;;
22644;SDS011;11489;50.834;6.752;2022-08-07T02:01:08;2.45;;;1.90;;
22644;SDS011;11489;50.834;6.752;2022-08-07T02:03:40;2.85;;;2.03;;
22644;SDS011;11489;50.834;6.752;2022-08-07T02:06:09;2.92;;;1.92;;
22644;SDS011;11489;50.834;6.752;2022-08-07T02:08:38;2.78;;;1.98;;
22644;SDS011;11489;50.834;6.752;2022-08-07T02:11:06;3.40;;;1.80;;
22644;SDS011;11489;50.834;6.752;2022-08-07T02:13:34;3.15;;;1.83;;
22644;SDS011;11489;50.834;6.752;2022-08-07T02:16:01;2.47;;;1.52;;
22644;SDS011;11489;50.834;6.752;2022-08-07T02:18:28;2.92;;;1.52;;
22644;SDS011;11489;50.834;6.752;2022-08-07T02:20:58;2.45;;;1.60;;
22644;SDS011;11489;50.834;6.752;2022-08-07T02:23:25;5.65;;;1.92;;
22644;SDS011;11489;50.834;6.752;2022-08-07T02:25:52;2.78;;;1.77;;
22644;SDS011;11489;50.834;6.752;2022-08-07T02:28:19;4.40;;;1.90;;
22644;SDS011;11489;50.834;6.752;2022-08-07T02:30:47;3.22;;;2.08;;
22644;SDS011;11489;50.834;6.752;2022-08-07T02:33:15;2.75;;;1.88;;
22644;SDS011;11489;50.834;6.752;2022-08-07T02:35:42;3.22;;;1.80;;
22644;SDS011;11489;50.834;6.752;2022-08-07T02:38:09;5.38;;;2.00;;
22644;SDS011;11489;50.834;6.752;2022-08-07T02:40:36;2.53;;;2.08;;
22644;SDS011;11489;50.834;6.752;2022-08-07T02:43:02;4.10;;;2.03;;
22644;SDS011;11489;50.834;6.752;2022-08-07T02:45:30;3.67;;;1.90;;
22644;SDS011;11489;50.834;6.752;2022-08-07T02:47:57;3.58;;;1.80;;
22644;SDS011;11489;50.834;6.752;2022-08-07T02:50:23;3.65;;;1.90;;
22644;SDS011;11489;50.834;6.752;2022-08-07T02:52:53;4.53;;;2.08;;
22644;SDS011;11489;50.834;6.752;2022-08-07T02:55:27;3.30;;;2.00;;
22644;SDS011;11489;50.834;6.752;2022-08-07T02:57:55;4.70;;;1.83;;
22644;SDS011;11489;50.834;6.752;2022-08-07T03:00:27;2.15;;;1.75;;
22644;SDS011;11489;50.834;6.752;2022-08-07T03:02:54;3.17;;;2.17;;
22644;SDS011;11489;50.834;6.752;2022-08-07T03:05:22;3.15;;;2.20;;
22644;SDS011;11489;50.834;6.752;2022-08-07T03:07:48;7.05;;;2.30;;
22644;SDS011;11489;50.834;6.752;2022-08-07T03:10:15;4.70;;;2.40;;
22644;SDS011;11489;50.834;6.752;2022-08-07T03:12:42;5.07;;;2.50;;
22644;SDS011;11489;50.834;6.752;2022-08-07T03:15:10;3.40;;;2.10;;
22644;SDS011;11489;50.834;6.752;2022-08-07T03:17:36;3.40;;;2.20;;
22644;SDS011;11489;50.834;6.752;2022-08-07T03:20:03;5.97;;;2.47;;
22644;SDS011;11489;50.834;6.752;2022-08-07T03:22:30;4.55;;;2.20;;
22644;SDS011;11489;50.834;6.752;2022-08-07T03:24:56;5.68;;;2.58;;
22644;SDS011;11489;50.834;6.752;2022-08-07T03:27:24;3.30;;;2.22;;
22644;SDS011;11489;50.834;6.752;2022-08-07T03:29:50;2.47;;;2.20;;
22644;SDS011;11489;50.834;6.752;2022-08-07T03:32:21;5.80;;;2.00;;
22644;SDS011;11489;50.834;6.752;2022-08-07T03:34:49;4.45;;;2.65;;
22644;SDS011;11489;50.834;6.752;2022-08-07T03:37:17;5.05;;;2.70;;
22644;SDS011;11489;50.834;6.752;2022-08-07T03:39:45;3.58;;;2.28;;
22644;SDS011;11489;50.834;6.752;2022-08-07T03:42:13;2.85;;;2.13;;
22644;SDS011;11489;50.834;6.752;2022-08-07T03:44:41;3.70;;;2.50;;
22644;SDS011;11489;50.834;6.752;2022-08-07T03:47:07;6.35;;;2.95;;
22644;SDS011;11489;50.834;6.752;2022-08-07T03:49:35;5.90;;;2.28;;
22644;SDS011;11489;50.834;6.752;2022-08-07T03:52:00;3.22;;;2.40;;
22644;SDS011;11489;50.834;6.752;2022-08-07T03:54:27;6.85;;;2.28;;
22644;SDS011;11489;50.834;6.752;2022-08-07T03:56:54;9.75;;;3.13;;
22644;SDS011;11489;50.834;6.752;2022-08-07T03:59:21;7.65;;;2.90;;
22644;SDS011;11489;50.834;6.752;2022-08-07T04:01:47;4.10;;;2.45;;
22644;SDS011;11489;50.834;6.752;2022-08-07T04:04:16;5.30;;;2.45;;
22644;SDS011;11489;50.834;6.752;2022-08-07T04:06:43;5.30;;;2.60;;
22644;SDS011;11489;50.834;6.752;2022-08-07T04:09:10;3.73;;;2.47;;
22644;SDS011;11489;50.834;6.752;2022-08-07T04:11:37;4.07;;;2.47;;
22644;SDS011;11489;50.834;6.752;2022-08-07T04:14:03;5.78;;;2.80;;
22644;SDS011;11489;50.834;6.752;2022-08-07T04:16:30;3.75;;;2.13;;
22644;SDS011;11489;50.834;6.752;2022-08-07T04:18:56;4.55;;;2.22;;
22644;SDS011;11489;50.834;6.752;2022-08-07T04:21:22;3.25;;;2.45;;
22644;SDS011;11489;50.834;6.752;2022-08-07T04:23:48;5.82;;;2.45;;
22644;SDS011;11489;50.834;6.752;2022-08-07T04:26:14;3.60;;;2.38;;
22644;SDS011;11489;50.834;6.752;2022-08-07T04:28:40;6.15;;;2.40;;
22644;SDS011;11489;50.834;6.752;2022-08-07T04:31:07;5.45;;;2.30;;
22644;SDS011;11489;50.834;6.752;2022-08-07T04:33:35;5.68;;;2.50;;
22644;SDS011;11489;50.834;6.752;2022-08-07T04:36:02;4.10;;;2.40;;
22644;SDS011;11489;50.834;6.752;2022-08-07T04:38:29;5.07;;;2.50;;
22644;SDS011;11489;50.834;6.752;2022-08-07T04:40:54;5.75;;;2.40;;
22644;SDS011;11489;50.834;6.752;2022-08-07T04:43:27;4.10;;;2.17;;
22644;SDS011;11489;50.834;6.752;2022-08-07T04:46:02;4.05;;;2.33;;
22644;SDS011;11489;50.834;6.752;2022-08-07T04:52:02;4.97;;;2.50;;
22644;SDS011;11489;50.834;6.752;2022-08-07T04:57:26;2.63;;;2.00;;
22644;SDS011;11489;50.834;6.752;2022-08-07T05:00:04;4.35;;;2.30;;
22644;SDS011;11489;50.834;6.752;2022-08-07T05:02:55;3.00;;;2.35;;
22644;SDS011;11489;50.834;6.752;2022-08-07T05:05:34;3.05;;;2.30;;
22644;SDS011;11489;50.834;6.752;2022-08-07T05:08:14;9.00;;;2.45;;
22644;SDS011;11489;50.834;6.752;2022-08-07T05:10:46;2.88;;;2.28;;
22644;SDS011;11489;50.834;6.752;2022-08-07T05:13:33;3.42;;;2.20;;
22644;SDS011;11489;50.834;6.752;2022-08-07T05:16:04;5.53;;;2.28;;
22644;SDS011;11489;50.834;6.752;2022-08-07T05:18:34;6.85;;;2.70;;
22644;SDS011;11489;50.834;6.752;2022-08-07T05:21:04;6.32;;;2.35;;
22644;SDS011;11489;50.834;6.752;2022-08-07T05:23:41;3.90;;;2.38;;
22644;SDS011;11489;50.834;6.752;2022-08-07T05:26:14;6.57;;;3.17;;
22644;SDS011;11489;50.834;6.752;2022-08-07T05:28:42;3.15;;;2.30;;
22644;SDS011;11489;50.834;6.752;2022-08-07T05:31:10;4.28;;;2.38;;
22644;SDS011;11489;50.834;6.752;2022-08-07T05:33:37;4.70;;;2.30;;
22644;SDS011;11489;50.834;6.752;2022-08-07T05:36:06;5.25;;;2.50;;
22644;SDS011;11489;50.834;6.752;2022-08-07T05:38:33;7.70;;;3.08;;
22644;SDS011;11489;50.834;6.752;2022-08-07T05:41:00;3.92;;;2.70;;
22644;SDS011;11489;50.834;6.752;2022-08-07T05:43:26;4.07;;;2.58;;
22644;SDS011;11489;50.834;6.752;2022-08-07T05:45:52;5.40;;;2.80;;
22644;SDS011;11489;50.834;6.752;2022-08-07T05:48:20;4.78;;;2.33;;
22644;SDS011;11489;50.834;6.752;2022-08-07T05:50:46;5.50;;;2.55;;
22644;SDS011;11489;50.834;6.752;2022-08-07T05:53:12;4.85;;;2.70;;
22644;SDS011;11489;50.834;6.752;2022-08-07T05:55:39;3.83;;;2.70;;
22644;SDS011;11489;50.834;6.752;2022-08-07T05:58:05;7.72;;;2.85;;
22644;SDS011;11489;50.834;6.752;2022-08-07T06:00:34;5.97;;;2.90;;
22644;SDS011;11489;50.834;6.752;2022-08-07T06:03:01;6.78;;;2.90;;
22644;SDS011;11489;50.834;6.752;2022-08-07T06:05:30;5.72;;;2.55;;
22644;SDS011;11489;50.834;6.752;2022-08-07T06:07:57;3.70;;;2.85;;
22644;SDS011;11489;50.834;6.752;2022-08-07T06:10:25;3.95;;;2.80;;
22644;SDS011;11489;50.834;6.752;2022-08-07T06:12:52;6.88;;;3.38;;
22644;SDS011;11489;50.834;6.752;2022-08-07T06:15:18;4.15;;;3.03;;
22644;SDS011;11489;50.834;6.752;2022-08-07T06:17:46;6.50;;;3.20;;
22644;SDS011;11489;50.834;6.752;2022-08-07T06:20:12;7.20;;;2.90;;
22644;SDS011;11489;50.834;6.752;2022-08-07T06:22:39;4.38;;;2.90;;
22644;SDS011;11489;50.834;6.752;2022-08-07T06:25:06;5.35;;;3.30;;
22644;SDS011;11489;50.834;6.752;2022-08-07T06:27:33;4.00;;;3.00;;
22644;SDS011;11489;50.834;6.752;2022-08-07T06:29:59;6.03;;;3.22;;
22644;SDS011;11489;50.834;6.752;2022-08-07T06:32:25;6.78;;;3.15;;
22644;SDS011;11489;50.834;6.752;2022-08-07T06:34:51;4.38;;;2.90;;
22644;SDS011;11489;50.834;6.752;2022-08-07T06:37:16;6.03;;;3.17;;
22644;SDS011;11489;50.834;6.752;2022-08-07T06:39:42;5.45;;;3.15;;
22644;SDS011;11489;50.834;6.752;2022-08-07T06:42:41;5.22;;;2.83;;
22644;SDS011;11489;50.834;6.752;2022-08-07T06:45:05;5.32;;;2.88;;
22644;SDS011;11489;50.834;6.752;2022-08-07T06:47:34;6.00;;;3.00;;
22644;SDS011;11489;50.834;6.752;2022-08-07T06:50:00;6.05;;;2.83;;
22644;SDS011;11489;50.834;6.752;2022-08-07T06:52:27;4.22;;;2.58;;
22644;SDS011;11489;50.834;6.752;2022-08-07T06:54:57;3.65;;;2.53;;
22644;SDS011;11489;50.834;6.752;2022-08-07T06:57:25;4.93;;;3.00;;
22644;SDS011;11489;50.834;6.752;2022-08-07T06:59:53;5.38;;;3.08;;
22644;SDS011;11489;50.834;6.752;2022-08-07T07:02:20;3.25;;;2.65;;
22644;SDS011;11489;50.834;6.752;2022-08-07T07:04:47;7.63;;;3.22;;
22644;SDS011;11489;50.834;6.752;2022-08-07T07:07:13;3.70;;;2.70;;
22644;SDS011;11489;50.834;6.752;2022-08-07T07:09:46;8.85;;;2.90;;
22644;SDS011;11489;50.834;6.752;2022-08-07T07:17:48;3.88;;;2.40;;
22644;SDS011;11489;50.834;6.752;2022-08-07T07:21:00;5.57;;;2.85;;
22644;SDS011;11489;50.834;6.752;2022-08-07T07:23:27;4.93;;;2.30;;
22644;SDS011;11489;50.834;6.752;2022-08-07T07:25:58;4.57;;;2.20;;
22644;SDS011;11489;50.834;6.752;2022-08-07T07:28:28;3.30;;;1.80;;
22644;SDS011;11489;50.834;6.752;2022-08-07T07:30:57;3.17;;;2.17;;
22644;SDS011;11489;50.834;6.752;2022-08-07T07:33:27;5.93;;;2.33;;
22644;SDS011;11489;50.834;6.752;2022-08-07T07:35:56;3.72;;;2.00;;
22644;SDS011;11489;50.834;6.752;2022-08-07T07:38:24;3.47;;;1.80;;
22644;SDS011;11489;50.834;6.752;2022-08-07T07:40:50;3.17;;;1.80;;
22644;SDS011;11489;50.834;6.752;2022-08-07T07:43:20;3.38;;;2.10;;
22644;SDS011;11489;50.834;6.752;2022-08-07T07:45:47;4.40;;;2.00;;
22644;SDS011;11489;50.834;6.752;2022-08-07T07:48:16;2.60;;;1.85;;
22644;SDS011;11489;50.834;6.752;2022-08-07T07:50:45;3.22;;;1.60;;
22644;SDS011;11489;50.834;6.752;2022-08-07T07:53:14;3.08;;;2.08;;
22644;SDS011;11489;50.834;6.752;2022-08-07T07:55:42;4.32;;;1.63;;
22644;SDS011;11489;50.834;6.752;2022-08-07T07:58:08;2.47;;;1.77;;
22644;SDS011;11489;50.834;6.752;2022-08-07T08:00:35;3.85;;;1.80;;
22644;SDS011;11489;50.834;6.752;2022-08-07T08:03:04;2.80;;;1.50;;
22644;SDS011;11489;50.834;6.752;2022-08-07T08:05:34;2.67;;;1.58;;
22644;SDS011;11489;50.834;6.752;2022-08-07T08:08:04;1.65;;;1.30;;
22644;SDS011;11489;50.834;6.752;2022-08-07T08:10:32;1.50;;;1.02;;
22644;SDS011;11489;50.834;6.752;2022-08-07T08:12:59;3.30;;;1.63;;
22644;SDS011;11489;50.834;6.752;2022-08-07T08:15:27;2.08;;;1.35;;
22644;SDS011;11489;50.834;6.752;2022-08-07T08:17:57;1.88;;;1.23;;
22644;SDS011;11489;50.834;6.752;2022-08-07T08:20:24;2.45;;;1.50;;
22644;SDS011;11489;50.834;6.752;2022-08-07T08:22:51;2.67;;;1.50;;
22644;SDS011;11489;50.834;6.752;2022-08-07T08:25:38;1.85;;;1.10;;
22644;SDS011;11489;50.834;6.752;2022-08-07T08:28:24;2.90;;;1.20;;
22644;SDS011;11489;50.834;6.752;2022-08-07T08:30:57;1.13;;;0.93;;
22644;SDS011;11489;50.834;6.752;2022-08-07T08:33:26;2.70;;;1.23;;
22644;SDS011;11489;50.834;6.752;2022-08-07T08:35:54;1.63;;;1.27;;
22644;SDS011;11489;50.834;6.752;2022-08-07T08:38:23;2.70;;;1.30;;
22644;SDS011;11489;50.834;6.752;2022-08-07T08:40:57;2.92;;;1.50;;
22644;SDS011;11489;50.834;6.752;2022-08-07T08:43:45;3.05;;;1.40;;
22644;SDS011;11489;50.834;6.752;2022-08-07T08:46:40;1.50;;;1.40;;
22644;SDS011;11489;50.834;6.752;2022-08-07T08:49:31;2.10;;;1.42;;
22644;SDS011;11489;50.834;6.752;2022-08-07T08:54:52;7.10;;;1.73;;
22644;SDS011;11489;50.834;6.752;2022-08-07T08:57:44;2.75;;;1.45;;
22644;SDS011;11489;50.834;6.752;2022-08-07T09:00:31;1.92;;;1.40;;
22644;SDS011;11489;50.834;6.752;2022-08-07T09:03:09;1.45;;;1.30;;
22644;SDS011;11489;50.834;6.752;2022-08-07T09:05:48;4.85;;;1.67;;
22644;SDS011;11489;50.834;6.752;2022-08-07T09:14:09;1.50;;;1.30;;
22644;SDS011;11489;50.834;6.752;2022-08-07T09:19:51;1.02;;;0.93;;
22644;SDS011;11489;50.834;6.752;2022-08-07T09:25:40;1.48;;;0.82;;
22644;SDS011;11489;50.834;6.752;2022-08-07T09:28:51;1.15;;;0.60;;
22644;SDS011;11489;50.834;6.752;2022-08-07T09:37:27;1.08;;;0.80;;
22644;SDS011;11489;50.834;6.752;2022-08-07T09:43:02;3.05;;;1.20;;
22644;SDS011;11489;50.834;6.752;2022-08-07T09:45:45;4.38;;;0.80;;
22644;SDS011;11489;50.834;6.752;2022-08-07T09:51:14;0.88;;;0.63;;
22644;SDS011;11489;50.834;6.752;2022-08-07T09:53:45;1.13;;;0.60;;
22644;SDS011;11489;50.834;6.752;2022-08-07T10:10:18;1.05;;;0.40;;
22644;SDS011;11489;50.834;6.752;2022-08-07T10:12:58;1.40;;;0.50;;
22644;SDS011;11489;50.834;6.752;2022-08-07T10:15:42;0.47;;;0.40;;
22644;SDS011;11489;50.834;6.752;2022-08-07T10:29:10;1.02;;;0.50;;
22644;SDS011;11489;50.834;6.752;2022-08-07T10:40:35;0.38;;;0.35;;
22644;SDS011;11489;50.834;6.752;2022-08-07T10:43:18;0.88;;;0.60;;
22644;SDS011;11489;50.834;6.752;2022-08-07T10:45:48;0.57;;;0.50;;
22644;SDS011;11489;50.834;6.752;2022-08-07T10:48:38;0.70;;;0.50;;
22644;SDS011;11489;50.834;6.752;2022-08-07T10:51:55;0.40;;;0.40;;
22644;SDS011;11489;50.834;6.752;2022-08-07T10:54:17;0.50;;;0.50;;
22644;SDS011;11489;50.834;6.752;2022-08-07T10:57:10;0.95;;;0.50;;
22644;SDS011;11489;50.834;6.752;2022-08-07T11:00:13;0.82;;;0.52;;
22644;SDS011;11489;50.834;6.752;2022-08-07T11:03:02;0.80;;;0.50;;
22644;SDS011;11489;50.834;6.752;2022-08-07T11:08:35;0.95;;;0.50;;
22644;SDS011;11489;50.834;6.752;2022-08-07T11:11:42;1.48;;;0.77;;
22644;SDS011;11489;50.834;6.752;2022-08-07T11:14:21;0.50;;;0.50;;
22644;SDS011;11489;50.834;6.752;2022-08-07T11:17:01;0.55;;;0.55;;
22644;SDS011;11489;50.834;6.752;2022-08-07T11:19:52;0.63;;;0.47;;
22644;SDS011;11489;50.834;6.752;2022-08-07T11:22:26;3.42;;;0.85;;
22644;SDS011;11489;50.834;6.752;2022-08-07T11:25:05;0.98;;;0.65;;
22644;SDS011;11489;50.834;6.752;2022-08-07T11:27:41;1.55;;;0.70;;
22644;SDS011;11489;50.834;6.752;2022-08-07T11:30:21;1.20;;;0.60;;
22644;SDS011;11489;50.834;6.752;2022-08-07T11:32:55;1.23;;;0.52;;
22644;SDS011;11489;50.834;6.752;2022-08-07T11:35:31;2.03;;;0.60;;
22644;SDS011;11489;50.834;6.752;2022-08-07T11:38:07;0.70;;;0.55;;
22644;SDS011;11489;50.834;6.752;2022-08-07T11:43:21;0.80;;;0.50;;
22644;SDS011;11489;50.834;6.752;2022-08-07T11:55:07;3.33;;;0.60;;
22644;SDS011;11489;50.834;6.752;2022-08-07T12:00:57;0.80;;;0.50;;
22644;SDS011;11489;50.834;6.752;2022-08-07T12:09:15;1.63;;;0.73;;
22644;SDS011;11489;50.834;6.752;2022-08-07T12:11:46;0.95;;;0.90;;
22644;SDS011;11489;50.834;6.752;2022-08-07T12:14:18;1.58;;;0.70;;
22644;SDS011;11489;50.834;6.752;2022-08-07T12:16:47;1.63;;;0.80;;
22644;SDS011;11489;50.834;6.752;2022-08-07T12:22:11;1.02;;;0.70;;
22644;SDS011;11489;50.834;6.752;2022-08-07T12:28:05;1.50;;;0.90;;
22644;SDS011;11489;50.834;6.752;2022-08-07T12:30:39;0.73;;;0.63;;
22644;SDS011;11489;50.834;6.752;2022-08-07T12:33:11;1.60;;;0.57;;
22644;SDS011;11489;50.834;6.752;2022-08-07T12:35:43;1.35;;;0.75;;
22644;SDS011;11489;50.834;6.752;2022-08-07T12:38:12;0.73;;;0.70;;
22644;SDS011;11489;50.834;6.752;2022-08-07T12:40:39;0.70;;;0.70;;
22644;SDS011;11489;50.834;6.752;2022-08-07T12:43:08;1.15;;;0.80;;
22644;SDS011;11489;50.834;6.752;2022-08-07T12:45:39;1.92;;;0.85;;
22644;SDS011;11489;50.834;6.752;2022-08-07T12:51:06;1.45;;;0.52;;
22644;SDS011;11489;50.834;6.752;2022-08-07T12:53:50;0.68;;;0.68;;
22644;SDS011;11489;50.834;6.752;2022-08-07T12:56:21;1.00;;;0.82;;
22644;SDS011;11489;50.834;6.752;2022-08-07T12:58:57;0.80;;;0.70;;
22644;SDS011;11489;50.834;6.752;2022-08-07T13:03:54;0.75;;;0.63;;
22644;SDS011;11489;50.834;6.752;2022-08-07T13:06:36;0.75;;;0.70;;
22644;SDS011;11489;50.834;6.752;2022-08-07T13:09:26;2.70;;;0.73;;
22644;SDS011;11489;50.834;6.752;2022-08-07T13:18:12;1.35;;;0.95;;
22644;SDS011;11489;50.834;6.752;2022-08-07T13:20:47;1.60;;;1.00;;
22644;SDS011;11489;50.834;6.752;2022-08-07T13:23:25;0.80;;;0.70;;
22644;SDS011;11489;50.834;6.752;2022-08-07T13:26:04;1.08;;;0.75;;
22644;SDS011;11489;50.834;6.752;2022-08-07T13:28:56;0.95;;;0.60;;
22644;SDS011;11489;50.834;6.752;2022-08-07T13:31:39;0.93;;;0.63;;
22644;SDS011;11489;50.834;6.752;2022-08-07T13:37:03;2.03;;;0.70;;
22644;SDS011;11489;50.834;6.752;2022-08-07T13:39:46;1.17;;;0.73;;
22644;SDS011;11489;50.834;6.752;2022-08-07T13:42:23;1.05;;;0.55;;
22644;SDS011;11489;50.834;6.752;2022-08-07T13:44:49;1.13;;;0.80;;
22644;SDS011;11489;50.834;6.752;2022-08-07T13:47:17;2.33;;;0.68;;
22644;SDS011;11489;50.834;6.752;2022-08-07T13:49:45;0.57;;;0.52;;
22644;SDS011;11489;50.834;6.752;2022-08-07T13:52:12;0.90;;;0.80;;
22644;SDS011;11489;50.834;6.752;2022-08-07T13:54:39;1.40;;;0.80;;
22644;SDS011;11489;50.834;6.752;2022-08-07T13:57:08;1.23;;;0.70;;
22644;SDS011;11489;50.834;6.752;2022-08-07T13:59:41;0.40;;;0.40;;
22644;SDS011;11489;50.834;6.752;2022-08-07T14:02:10;0.63;;;0.57;;
22644;SDS011;11489;50.834;6.752;2022-08-07T14:07:08;1.75;;;0.70;;
22644;SDS011;11489;50.834;6.752;2022-08-07T14:09:36;0.95;;;0.75;;
22644;SDS011;11489;50.834;6.752;2022-08-07T14:12:05;1.27;;;0.60;;
22644;SDS011;11489;50.834;6.752;2022-08-07T14:14:42;0.93;;;0.80;;
22644;SDS011;11489;50.834;6.752;2022-08-07T14:17:12;0.90;;;0.73;;
22644;SDS011;11489;50.834;6.752;2022-08-07T14:19:47;1.02;;;0.68;;
22644;SDS011;11489;50.834;6.752;2022-08-07T14:22:19;1.55;;;0.70;;
22644;SDS011;11489;50.834;6.752;2022-08-07T14:24:50;0.60;;;0.50;;
22644;SDS011;11489;50.834;6.752;2022-08-07T14:27:25;0.50;;;0.40;;
22644;SDS011;11489;50.834;6.752;2022-08-07T14:30:03;0.90;;;0.50;;
22644;SDS011;11489;50.834;6.752;2022-08-07T14:32:42;1.58;;;0.70;;
22644;SDS011;11489;50.834;6.752;2022-08-07T14:35:23;0.45;;;0.45;;
22644;SDS011;11489;50.834;6.752;2022-08-07T14:37:52;0.50;;;0.50;;
22644;SDS011;11489;50.834;6.752;2022-08-07T14:40:19;0.45;;;0.45;;
22644;SDS011;11489;50.834;6.752;2022-08-07T14:42:53;0.82;;;0.60;;
22644;SDS011;11489;50.834;6.752;2022-08-07T14:45:22;1.67;;;0.60;;
22644;SDS011;11489;50.834;6.752;2022-08-07T14:47:50;1.30;;;0.55;;
22644;SDS011;11489;50.834;6.752;2022-08-07T14:50:19;1.25;;;0.60;;
22644;SDS011;11489;50.834;6.752;2022-08-07T14:52:47;0.52;;;0.50;;
22644;SDS011;11489;50.834;6.752;2022-08-07T14:55:14;0.50;;;0.50;;
22644;SDS011;11489;50.834;6.752;2022-08-07T14:57:41;0.70;;;0.47;;
22644;SDS011;11489;50.834;6.752;2022-08-07T15:00:10;1.33;;;0.45;;
22644;SDS011;11489;50.834;6.752;2022-08-07T15:02:36;1.05;;;0.60;;
22644;SDS011;11489;50.834;6.752;2022-08-07T15:05:03;1.00;;;0.50;;
22644;SDS011;11489;50.834;6.752;2022-08-07T15:07:29;1.08;;;0.50;;
22644;SDS011;11489;50.834;6.752;2022-08-07T15:09:56;1.15;;;0.63;;
22644;SDS011;11489;50.834;6.752;2022-08-07T15:12:28;0.82;;;0.57;;
22644;SDS011;11489;50.834;6.752;2022-08-07T15:15:06;0.77;;;0.60;;
22644;SDS011;11489;50.834;6.752;2022-08-07T15:17:37;0.95;;;0.50;;
22644;SDS011;11489;50.834;6.752;2022-08-07T15:20:08;0.93;;;0.63;;
22644;SDS011;11489;50.834;6.752;2022-08-07T15:22:46;0.73;;;0.60;;
22644;SDS011;11489;50.834;6.752;2022-08-07T15:25:16;0.50;;;0.50;;
22644;SDS011;11489;50.834;6.752;2022-08-07T15:27:59;0.57;;;0.57;;
22644;SDS011;11489;50.834;6.752;2022-08-07T15:30:27;0.73;;;0.55;;
22644;SDS011;11489;50.834;6.752;2022-08-07T15:32:55;0.70;;;0.57;;
22644;SDS011;11489;50.834;6.752;2022-08-07T15:35:23;0.50;;;0.50;;
22644;SDS011;11489;50.834;6.752;2022-08-07T15:37:50;0.57;;;0.57;;
22644;SDS011;11489;50.834;6.752;2022-08-07T15:40:19;1.58;;;0.57;;
22644;SDS011;11489;50.834;6.752;2022-08-07T15:42:53;0.50;;;0.50;;
22644;SDS011;11489;50.834;6.752;2022-08-07T15:47:51;0.50;;;0.50;;
22644;SDS011;11489;50.834;6.752;2022-08-07T15:50:19;0.50;;;0.50;;
22644;SDS011;11489;50.834;6.752;2022-08-07T15:52:50;1.10;;;0.80;;
22644;SDS011;11489;50.834;6.752;2022-08-07T15:55:21;0.40;;;0.40;;
22644;SDS011;11489;50.834;6.752;2022-08-07T15:57:50;1.30;;;0.60;;
22644;SDS011;11489;50.834;6.752;2022-08-07T16:00:18;0.38;;;0.38;;
22644;SDS011;11489;50.834;6.752;2022-08-07T16:02:45;0.82;;;0.60;;
22644;SDS011;11489;50.834;6.752;2022-08-07T16:05:17;0.80;;;0.70;;
22644;SDS011;11489;50.834;6.752;2022-08-07T16:07:49;1.88;;;0.80;;
22644;SDS011;11489;50.834;6.752;2022-08-07T16:10:19;0.60;;;0.52;;
22644;SDS011;11489;50.834;6.752;2022-08-07T16:12:56;1.75;;;0.68;;
22644;SDS011;11489;50.834;6.752;2022-08-07T16:15:33;0.68;;;0.52;;
22644;SDS011;11489;50.834;6.752;2022-08-07T16:18:08;0.60;;;0.50;;
22644;SDS011;11489;50.834;6.752;2022-08-07T16:26:31;0.73;;;0.70;;
22644;SDS011;11489;50.834;6.752;2022-08-07T16:32:11;0.60;;;0.57;;
22644;SDS011;11489;50.834;6.752;2022-08-07T16:51:43;0.50;;;0.50;;
22644;SDS011;11489;50.834;6.752;2022-08-07T16:54:28;0.50;;;0.50;;
22644;SDS011;11489;50.834;6.752;2022-08-07T17:00:05;2.10;;;0.60;;
22644;SDS011;11489;50.834;6.752;2022-08-07T17:07:55;1.10;;;0.63;;
22644;SDS011;11489;50.834;6.752;2022-08-07T17:13:04;0.60;;;0.60;;
22644;SDS011;11489;50.834;6.752;2022-08-07T17:18:27;1.48;;;0.65;;
22644;SDS011;11489;50.834;6.752;2022-08-07T17:21:00;0.85;;;0.55;;
22644;SDS011;11489;50.834;6.752;2022-08-07T17:26:34;0.70;;;0.70;;
22644;SDS011;11489;50.834;6.752;2022-08-07T17:29:05;6.28;;;0.90;;
22644;SDS011;11489;50.834;6.752;2022-08-07T17:34:27;0.95;;;0.60;;
22644;SDS011;11489;50.834;6.752;2022-08-07T17:37:03;1.23;;;0.82;;
22644;SDS011;11489;50.834;6.752;2022-08-07T17:44:57;0.73;;;0.60;;
22644;SDS011;11489;50.834;6.752;2022-08-07T17:47:38;0.97;;;0.60;;
22644;SDS011;11489;50.834;6.752;2022-08-07T17:50:17;1.95;;;0.60;;
22644;SDS011;11489;50.834;6.752;2022-08-07T17:52:59;1.23;;;0.70;;
22644;SDS011;11489;50.834;6.752;2022-08-07T17:58:07;2.15;;;0.80;;
22644;SDS011;11489;50.834;6.752;2022-08-07T18:00:40;1.08;;;0.60;;
22644;SDS011;11489;50.834;6.752;2022-08-07T18:03:17;1.15;;;0.50;;
22644;SDS011;11489;50.834;6.752;2022-08-07T18:05:55;0.60;;;0.57;;
22644;SDS011;11489;50.834;6.752;2022-08-07T18:08:24;0.68;;;0.60;;